CheckWX is a tool to help pilots better visualize weather data.  It is not intended as a substitute for an official pre-flight weather briefing.

00:53:50 UTC

KJAC METAR
Jackson Hole Airport
Jackson, Wyoming, USA
Current

58 mins ago

KJAC 232356Z 11004KT 10SM SCT065 05/M03 A3002 RMK AO2 SLP183 6//// T00501028 10067 20028 56005
Observed
Mar-23 @ 23:56 UTC
Wind
  • 110° at 4 KTS
Visibility
10 SM
Flight Rules
VFR
Cloud Levels
  • Scattered at 6,500' AGL
Temperature
C / 41°F
Dewpoint
-3°C / 27°F
Humidity
57%
Altimeter
30.02" Hg
Pressure
1018.3 hPa
Previous

2 hours ago

KJAC 232256Z 00000KT 10SM SCT065 04/M02 A3002 RMK AO2 SLP191 T00441017
Observed
Mar-23 @ 22:56 UTC
Visibility
10 SM
Flight Rules
VFR
Cloud Levels
  • Scattered at 6,500' AGL
Temperature
C / 39°F
Dewpoint
-2°C / 28°F
Humidity
65%
Altimeter
30.02" Hg
Pressure
1019.1 hPa
Previous

3 hours ago

KJAC 232156Z 15003KT 10SM SCT065 07/M02 A3003 RMK AO2 SLP178 T00671017
Observed
Mar-23 @ 21:56 UTC
Wind
  • 150° at 3 KTS
Visibility
10 SM
Flight Rules
VFR
Cloud Levels
  • Scattered at 6,500' AGL
Temperature
C / 45°F
Dewpoint
-2°C / 28°F
Humidity
53%
Altimeter
30.03" Hg
Pressure
1017.8 hPa